sensor_id;sensor_type;location;lat;lon;timestamp;P1;durP1;ratioP1;P2;durP2;ratioP2
67997;SDS011;54773;53.388;-1.504;2023-07-24T00:00:32;7.25;;;2.72;;
67997;SDS011;54773;53.388;-1.504;2023-07-24T00:03:17;5.03;;;2.50;;
67997;SDS011;54773;53.388;-1.504;2023-07-24T00:06:01;5.43;;;2.70;;
67997;SDS011;54773;53.388;-1.504;2023-07-24T00:08:45;6.43;;;2.88;;
67997;SDS011;54773;53.388;-1.504;2023-07-24T00:11:29;6.90;;;2.95;;
67997;SDS011;54773;53.388;-1.504;2023-07-24T00:14:14;6.77;;;3.17;;
67997;SDS011;54773;53.388;-1.504;2023-07-24T00:16:58;6.05;;;2.78;;
67997;SDS011;54773;53.388;-1.504;2023-07-24T00:19:42;5.57;;;2.87;;
67997;SDS011;54773;53.388;-1.504;2023-07-24T00:22:26;6.93;;;2.88;;
67997;SDS011;54773;53.388;-1.504;2023-07-24T00:25:10;6.95;;;3.47;;
67997;SDS011;54773;53.388;-1.504;2023-07-24T00:27:54;7.33;;;3.30;;
67997;SDS011;54773;53.388;-1.504;2023-07-24T00:30:38;6.70;;;3.07;;
67997;SDS011;54773;53.388;-1.504;2023-07-24T00:33:22;8.30;;;3.23;;
67997;SDS011;54773;53.388;-1.504;2023-07-24T00:36:06;8.60;;;3.50;;
67997;SDS011;54773;53.388;-1.504;2023-07-24T00:38:50;8.07;;;3.75;;
67997;SDS011;54773;53.388;-1.504;2023-07-24T00:41:34;8.93;;;3.25;;
67997;SDS011;54773;53.388;-1.504;2023-07-24T00:44:18;5.63;;;3.03;;
67997;SDS011;54773;53.388;-1.504;2023-07-24T00:47:02;6.85;;;3.58;;
67997;SDS011;54773;53.388;-1.504;2023-07-24T00:49:46;7.10;;;3.15;;
67997;SDS011;54773;53.388;-1.504;2023-07-24T00:52:32;7.93;;;3.50;;
67997;SDS011;54773;53.388;-1.504;2023-07-24T00:55:16;8.43;;;3.60;;
67997;SDS011;54773;53.388;-1.504;2023-07-24T00:58:00;6.75;;;3.22;;
67997;SDS011;54773;53.388;-1.504;2023-07-24T01:00:46;6.07;;;3.20;;
67997;SDS011;54773;53.388;-1.504;2023-07-24T01:03:34;5.90;;;3.35;;
67997;SDS011;54773;53.388;-1.504;2023-07-24T01:06:19;9.63;;;3.47;;
67997;SDS011;54773;53.388;-1.504;2023-07-24T01:09:02;6.80;;;3.57;;
67997;SDS011;54773;53.388;-1.504;2023-07-24T01:11:47;6.57;;;3.13;;
67997;SDS011;54773;53.388;-1.504;2023-07-24T01:14:49;6.97;;;3.90;;
67997;SDS011;54773;53.388;-1.504;2023-07-24T01:17:34;8.38;;;3.60;;
67997;SDS011;54773;53.388;-1.504;2023-07-24T01:20:23;7.28;;;3.90;;
67997;SDS011;54773;53.388;-1.504;2023-07-24T01:26:15;6.55;;;3.40;;
67997;SDS011;54773;53.388;-1.504;2023-07-24T01:28:59;7.55;;;4.05;;
67997;SDS011;54773;53.388;-1.504;2023-07-24T01:31:42;7.37;;;4.30;;
67997;SDS011;54773;53.388;-1.504;2023-07-24T01:34:26;6.40;;;3.97;;
67997;SDS011;54773;53.388;-1.504;2023-07-24T01:37:10;6.90;;;3.87;;
67997;SDS011;54773;53.388;-1.504;2023-07-24T01:39:56;9.05;;;3.70;;
67997;SDS011;54773;53.388;-1.504;2023-07-24T01:42:40;9.80;;;3.95;;
67997;SDS011;54773;53.388;-1.504;2023-07-24T01:45:25;7.57;;;3.80;;
67997;SDS011;54773;53.388;-1.504;2023-07-24T01:48:09;7.75;;;3.80;;
67997;SDS011;54773;53.388;-1.504;2023-07-24T01:50:53;6.40;;;3.92;;
67997;SDS011;54773;53.388;-1.504;2023-07-24T01:53:37;6.67;;;3.57;;
67997;SDS011;54773;53.388;-1.504;2023-07-24T01:56:22;11.55;;;4.50;;
67997;SDS011;54773;53.388;-1.504;2023-07-24T01:59:06;7.72;;;4.43;;
67997;SDS011;54773;53.388;-1.504;2023-07-24T02:01:50;9.10;;;4.35;;
67997;SDS011;54773;53.388;-1.504;2023-07-24T02:04:34;8.97;;;4.07;;
67997;SDS011;54773;53.388;-1.504;2023-07-24T02:07:18;6.07;;;3.83;;
67997;SDS011;54773;53.388;-1.504;2023-07-24T02:10:02;7.83;;;4.60;;
67997;SDS011;54773;53.388;-1.504;2023-07-24T02:12:47;8.13;;;4.15;;
67997;SDS011;54773;53.388;-1.504;2023-07-24T02:15:31;8.70;;;4.63;;
67997;SDS011;54773;53.388;-1.504;2023-07-24T02:18:15;8.90;;;4.35;;
67997;SDS011;54773;53.388;-1.504;2023-07-24T02:20:59;8.20;;;4.25;;
67997;SDS011;54773;53.388;-1.504;2023-07-24T02:23:43;6.03;;;3.90;;
67997;SDS011;54773;53.388;-1.504;2023-07-24T02:26:27;8.83;;;4.67;;
67997;SDS011;54773;53.388;-1.504;2023-07-24T02:29:10;7.83;;;4.23;;
67997;SDS011;54773;53.388;-1.504;2023-07-24T02:31:54;9.02;;;4.55;;
67997;SDS011;54773;53.388;-1.504;2023-07-24T02:34:38;7.13;;;4.10;;
67997;SDS011;54773;53.388;-1.504;2023-07-24T02:37:22;9.07;;;4.60;;
67997;SDS011;54773;53.388;-1.504;2023-07-24T02:40:07;8.77;;;4.20;;
67997;SDS011;54773;53.388;-1.504;2023-07-24T02:42:52;6.72;;;4.13;;
67997;SDS011;54773;53.388;-1.504;2023-07-24T02:45:39;8.17;;;4.60;;
67997;SDS011;54773;53.388;-1.504;2023-07-24T02:48:23;8.55;;;4.85;;
67997;SDS011;54773;53.388;-1.504;2023-07-24T02:51:06;9.07;;;4.20;;
67997;SDS011;54773;53.388;-1.504;2023-07-24T02:53:52;7.80;;;3.97;;
67997;SDS011;54773;53.388;-1.504;2023-07-24T02:56:37;6.60;;;4.30;;
67997;SDS011;54773;53.388;-1.504;2023-07-24T02:59:22;9.15;;;4.30;;
67997;SDS011;54773;53.388;-1.504;2023-07-24T03:02:06;6.43;;;4.00;;
67997;SDS011;54773;53.388;-1.504;2023-07-24T03:04:50;8.35;;;5.30;;
67997;SDS011;54773;53.388;-1.504;2023-07-24T03:07:34;6.17;;;3.73;;
67997;SDS011;54773;53.388;-1.504;2023-07-24T03:10:19;9.52;;;4.10;;
67997;SDS011;54773;53.388;-1.504;2023-07-24T03:13:03;7.00;;;3.65;;
67997;SDS011;54773;53.388;-1.504;2023-07-24T03:15:54;6.30;;;4.00;;
67997;SDS011;54773;53.388;-1.504;2023-07-24T03:18:39;7.72;;;4.60;;
67997;SDS011;54773;53.388;-1.504;2023-07-24T03:21:23;8.80;;;5.05;;
67997;SDS011;54773;53.388;-1.504;2023-07-24T03:24:07;7.50;;;4.67;;
67997;SDS011;54773;53.388;-1.504;2023-07-24T03:26:51;8.00;;;4.30;;
67997;SDS011;54773;53.388;-1.504;2023-07-24T03:29:35;7.07;;;4.87;;
67997;SDS011;54773;53.388;-1.504;2023-07-24T03:32:21;8.98;;;4.82;;
67997;SDS011;54773;53.388;-1.504;2023-07-24T03:35:05;8.27;;;4.10;;
67997;SDS011;54773;53.388;-1.504;2023-07-24T03:37:50;8.52;;;4.45;;
67997;SDS011;54773;53.388;-1.504;2023-07-24T03:40:34;9.13;;;4.43;;
67997;SDS011;54773;53.388;-1.504;2023-07-24T03:43:18;10.17;;;4.70;;
67997;SDS011;54773;53.388;-1.504;2023-07-24T03:46:02;8.13;;;3.97;;
67997;SDS011;54773;53.388;-1.504;2023-07-24T03:48:47;9.05;;;4.13;;
67997;SDS011;54773;53.388;-1.504;2023-07-24T03:51:31;8.38;;;3.85;;
67997;SDS011;54773;53.388;-1.504;2023-07-24T03:54:17;6.75;;;3.63;;
67997;SDS011;54773;53.388;-1.504;2023-07-24T03:57:01;8.40;;;4.50;;
67997;SDS011;54773;53.388;-1.504;2023-07-24T03:59:45;7.28;;;4.03;;
67997;SDS011;54773;53.388;-1.504;2023-07-24T04:02:28;8.30;;;4.43;;
67997;SDS011;54773;53.388;-1.504;2023-07-24T04:05:12;8.87;;;4.30;;
67997;SDS011;54773;53.388;-1.504;2023-07-24T04:07:56;12.87;;;5.10;;
67997;SDS011;54773;53.388;-1.504;2023-07-24T04:10:40;11.27;;;4.47;;
67997;SDS011;54773;53.388;-1.504;2023-07-24T04:13:24;12.10;;;5.27;;
67997;SDS011;54773;53.388;-1.504;2023-07-24T04:16:08;12.63;;;4.93;;
67997;SDS011;54773;53.388;-1.504;2023-07-24T04:18:52;10.95;;;4.85;;
67997;SDS011;54773;53.388;-1.504;2023-07-24T04:21:36;14.23;;;5.25;;
67997;SDS011;54773;53.388;-1.504;2023-07-24T04:24:20;9.87;;;5.30;;
67997;SDS011;54773;53.388;-1.504;2023-07-24T04:27:04;11.27;;;4.78;;
67997;SDS011;54773;53.388;-1.504;2023-07-24T04:29:48;18.35;;;5.38;;
67997;SDS011;54773;53.388;-1.504;2023-07-24T04:32:32;9.85;;;4.80;;
67997;SDS011;54773;53.388;-1.504;2023-07-24T04:35:16;13.30;;;4.97;;
67997;SDS011;54773;53.388;-1.504;2023-07-24T04:38:00;13.97;;;5.60;;
67997;SDS011;54773;53.388;-1.504;2023-07-24T04:40:44;10.88;;;4.75;;
67997;SDS011;54773;53.388;-1.504;2023-07-24T04:43:29;11.55;;;4.93;;
67997;SDS011;54773;53.388;-1.504;2023-07-24T04:46:13;10.60;;;4.45;;
67997;SDS011;54773;53.388;-1.504;2023-07-24T04:48:57;13.05;;;4.82;;
67997;SDS011;54773;53.388;-1.504;2023-07-24T04:51:41;12.60;;;4.33;;
67997;SDS011;54773;53.388;-1.504;2023-07-24T04:54:25;12.75;;;4.18;;
67997;SDS011;54773;53.388;-1.504;2023-07-24T04:57:09;8.43;;;4.30;;
67997;SDS011;54773;53.388;-1.504;2023-07-24T04:59:53;8.97;;;4.17;;
67997;SDS011;54773;53.388;-1.504;2023-07-24T05:02:37;9.93;;;5.05;;
67997;SDS011;54773;53.388;-1.504;2023-07-24T05:05:21;11.48;;;4.63;;
67997;SDS011;54773;53.388;-1.504;2023-07-24T05:08:04;13.20;;;4.73;;
67997;SDS011;54773;53.388;-1.504;2023-07-24T05:10:56;9.10;;;3.75;;
67997;SDS011;54773;53.388;-1.504;2023-07-24T05:13:41;13.45;;;4.45;;
67997;SDS011;54773;53.388;-1.504;2023-07-24T05:16:25;10.82;;;3.55;;
67997;SDS011;54773;53.388;-1.504;2023-07-24T05:19:09;9.03;;;4.00;;
67997;SDS011;54773;53.388;-1.504;2023-07-24T05:21:52;14.15;;;3.88;;
67997;SDS011;54773;53.388;-1.504;2023-07-24T05:24:37;12.33;;;4.53;;
67997;SDS011;54773;53.388;-1.504;2023-07-24T05:27:21;13.23;;;4.15;;
67997;SDS011;54773;53.388;-1.504;2023-07-24T05:30:05;15.65;;;4.35;;
67997;SDS011;54773;53.388;-1.504;2023-07-24T05:32:49;11.05;;;4.25;;
67997;SDS011;54773;53.388;-1.504;2023-07-24T05:35:33;12.27;;;4.00;;
67997;SDS011;54773;53.388;-1.504;2023-07-24T05:38:17;11.50;;;3.90;;
67997;SDS011;54773;53.388;-1.504;2023-07-24T05:41:02;12.13;;;4.10;;
67997;SDS011;54773;53.388;-1.504;2023-07-24T05:43:47;10.65;;;3.85;;
67997;SDS011;54773;53.388;-1.504;2023-07-24T05:46:31;10.77;;;3.75;;
67997;SDS011;54773;53.388;-1.504;2023-07-24T05:49:15;11.87;;;3.93;;
67997;SDS011;54773;53.388;-1.504;2023-07-24T05:51:59;10.60;;;4.20;;
67997;SDS011;54773;53.388;-1.504;2023-07-24T05:54:43;9.30;;;3.57;;
67997;SDS011;54773;53.388;-1.504;2023-07-24T05:57:27;11.10;;;3.08;;
67997;SDS011;54773;53.388;-1.504;2023-07-24T06:00:11;11.30;;;3.72;;
67997;SDS011;54773;53.388;-1.504;2023-07-24T06:02:56;10.93;;;3.38;;
67997;SDS011;54773;53.388;-1.504;2023-07-24T06:05:39;11.60;;;3.67;;
67997;SDS011;54773;53.388;-1.504;2023-07-24T06:08:23;9.33;;;3.63;;
67997;SDS011;54773;53.388;-1.504;2023-07-24T06:11:07;8.07;;;3.43;;
67997;SDS011;54773;53.388;-1.504;2023-07-24T06:13:51;8.00;;;3.55;;
67997;SDS011;54773;53.388;-1.504;2023-07-24T06:19:20;9.93;;;3.53;;
67997;SDS011;54773;53.388;-1.504;2023-07-24T06:22:04;9.65;;;3.67;;
67997;SDS011;54773;53.388;-1.504;2023-07-24T06:24:49;11.30;;;3.42;;
67997;SDS011;54773;53.388;-1.504;2023-07-24T06:27:32;15.57;;;3.83;;
67997;SDS011;54773;53.388;-1.504;2023-07-24T06:30:16;12.20;;;4.00;;
67997;SDS011;54773;53.388;-1.504;2023-07-24T06:33:00;12.20;;;3.93;;
67997;SDS011;54773;53.388;-1.504;2023-07-24T06:35:44;7.57;;;3.53;;
67997;SDS011;54773;53.388;-1.504;2023-07-24T06:38:28;11.23;;;3.43;;
67997;SDS011;54773;53.388;-1.504;2023-07-24T06:41:12;6.20;;;3.07;;
67997;SDS011;54773;53.388;-1.504;2023-07-24T06:43:56;8.70;;;3.70;;
67997;SDS011;54773;53.388;-1.504;2023-07-24T06:46:40;9.90;;;3.47;;
67997;SDS011;54773;53.388;-1.504;2023-07-24T06:49:23;7.90;;;3.30;;
67997;SDS011;54773;53.388;-1.504;2023-07-24T06:52:10;12.57;;;3.78;;
67997;SDS011;54773;53.388;-1.504;2023-07-24T06:54:54;9.18;;;3.28;;
67997;SDS011;54773;53.388;-1.504;2023-07-24T06:57:38;10.03;;;3.80;;
67997;SDS011;54773;53.388;-1.504;2023-07-24T07:00:23;7.53;;;3.25;;
67997;SDS011;54773;53.388;-1.504;2023-07-24T07:03:07;7.85;;;3.10;;
67997;SDS011;54773;53.388;-1.504;2023-07-24T07:05:58;9.02;;;2.97;;
67997;SDS011;54773;53.388;-1.504;2023-07-24T07:08:45;8.10;;;3.20;;
67997;SDS011;54773;53.388;-1.504;2023-07-24T07:11:29;8.47;;;2.87;;
67997;SDS011;54773;53.388;-1.504;2023-07-24T07:14:13;8.95;;;2.85;;
67997;SDS011;54773;53.388;-1.504;2023-07-24T07:16:56;10.10;;;3.17;;
67997;SDS011;54773;53.388;-1.504;2023-07-24T07:19:44;6.85;;;3.05;;
67997;SDS011;54773;53.388;-1.504;2023-07-24T07:22:28;6.45;;;3.03;;
67997;SDS011;54773;53.388;-1.504;2023-07-24T07:25:14;7.80;;;3.05;;
67997;SDS011;54773;53.388;-1.504;2023-07-24T07:28:00;11.30;;;2.92;;
67997;SDS011;54773;53.388;-1.504;2023-07-24T07:30:44;8.90;;;3.13;;
67997;SDS011;54773;53.388;-1.504;2023-07-24T07:33:29;8.25;;;3.10;;
67997;SDS011;54773;53.388;-1.504;2023-07-24T07:36:13;10.63;;;2.60;;
67997;SDS011;54773;53.388;-1.504;2023-07-24T07:38:58;8.07;;;3.47;;
67997;SDS011;54773;53.388;-1.504;2023-07-24T07:41:42;9.43;;;3.20;;
67997;SDS011;54773;53.388;-1.504;2023-07-24T07:44:25;10.20;;;3.45;;
67997;SDS011;54773;53.388;-1.504;2023-07-24T07:47:09;8.30;;;3.87;;
67997;SDS011;54773;53.388;-1.504;2023-07-24T07:49:53;7.03;;;3.03;;
67997;SDS011;54773;53.388;-1.504;2023-07-24T07:52:37;8.53;;;3.50;;
67997;SDS011;54773;53.388;-1.504;2023-07-24T07:55:22;8.25;;;3.05;;
67997;SDS011;54773;53.388;-1.504;2023-07-24T07:58:06;10.98;;;3.20;;
67997;SDS011;54773;53.388;-1.504;2023-07-24T08:00:50;7.13;;;2.97;;
67997;SDS011;54773;53.388;-1.504;2023-07-24T08:03:34;7.87;;;2.63;;
67997;SDS011;54773;53.388;-1.504;2023-07-24T08:06:19;11.05;;;3.90;;
67997;SDS011;54773;53.388;-1.504;2023-07-24T08:09:05;8.15;;;3.58;;
67997;SDS011;54773;53.388;-1.504;2023-07-24T08:11:49;8.25;;;3.17;;
67997;SDS011;54773;53.388;-1.504;2023-07-24T08:14:35;10.95;;;3.65;;
67997;SDS011;54773;53.388;-1.504;2023-07-24T08:17:19;9.70;;;3.25;;
67997;SDS011;54773;53.388;-1.504;2023-07-24T08:20:05;7.75;;;3.00;;
67997;SDS011;54773;53.388;-1.504;2023-07-24T08:22:49;10.25;;;3.30;;
67997;SDS011;54773;53.388;-1.504;2023-07-24T08:25:39;9.07;;;3.25;;
67997;SDS011;54773;53.388;-1.504;2023-07-24T08:28:23;10.55;;;3.28;;
67997;SDS011;54773;53.388;-1.504;2023-07-24T08:31:09;6.50;;;3.45;;
67997;SDS011;54773;53.388;-1.504;2023-07-24T08:33:56;8.32;;;3.88;;
67997;SDS011;54773;53.388;-1.504;2023-07-24T08:36:40;9.00;;;3.42;;
67997;SDS011;54773;53.388;-1.504;2023-07-24T08:39:24;14.05;;;3.85;;
67997;SDS011;54773;53.388;-1.504;2023-07-24T08:42:12;8.60;;;3.85;;
67997;SDS011;54773;53.388;-1.504;2023-07-24T08:44:56;8.30;;;3.47;;
67997;SDS011;54773;53.388;-1.504;2023-07-24T08:47:45;8.80;;;3.10;;
67997;SDS011;54773;53.388;-1.504;2023-07-24T08:50:29;9.70;;;4.15;;
67997;SDS011;54773;53.388;-1.504;2023-07-24T08:53:13;7.68;;;3.13;;
67997;SDS011;54773;53.388;-1.504;2023-07-24T08:55:57;11.43;;;3.40;;
67997;SDS011;54773;53.388;-1.504;2023-07-24T08:58:44;10.80;;;3.40;;
67997;SDS011;54773;53.388;-1.504;2023-07-24T09:01:28;7.13;;;3.05;;
67997;SDS011;54773;53.388;-1.504;2023-07-24T09:04:12;8.55;;;3.70;;
67997;SDS011;54773;53.388;-1.504;2023-07-24T09:06:57;8.90;;;3.53;;
67997;SDS011;54773;53.388;-1.504;2023-07-24T09:09:42;6.03;;;3.10;;
67997;SDS011;54773;53.388;-1.504;2023-07-24T09:12:26;6.65;;;2.92;;
67997;SDS011;54773;53.388;-1.504;2023-07-24T09:15:10;10.10;;;3.13;;
67997;SDS011;54773;53.388;-1.504;2023-07-24T09:17:55;9.30;;;3.30;;
67997;SDS011;54773;53.388;-1.504;2023-07-24T09:20:39;8.38;;;3.85;;
67997;SDS011;54773;53.388;-1.504;2023-07-24T09:23:28;9.70;;;3.45;;
67997;SDS011;54773;53.388;-1.504;2023-07-24T09:26:12;11.20;;;4.63;;
67997;SDS011;54773;53.388;-1.504;2023-07-24T09:28:56;9.97;;;3.00;;
67997;SDS011;54773;53.388;-1.504;2023-07-24T09:31:39;9.03;;;3.00;;
67997;SDS011;54773;53.388;-1.504;2023-07-24T09:34:24;8.35;;;3.13;;
67997;SDS011;54773;53.388;-1.504;2023-07-24T09:37:09;5.53;;;2.40;;
67997;SDS011;54773;53.388;-1.504;2023-07-24T09:39:53;7.05;;;2.30;;
67997;SDS011;54773;53.388;-1.504;2023-07-24T09:42:37;6.20;;;2.17;;
67997;SDS011;54773;53.388;-1.504;2023-07-24T09:45:22;4.90;;;2.55;;
67997;SDS011;54773;53.388;-1.504;2023-07-24T09:48:06;7.70;;;2.65;;
67997;SDS011;54773;53.388;-1.504;2023-07-24T09:50:59;3.90;;;2.10;;
67997;SDS011;54773;53.388;-1.504;2023-07-24T09:53:52;9.40;;;2.63;;
67997;SDS011;54773;53.388;-1.504;2023-07-24T09:56:39;5.47;;;2.28;;
67997;SDS011;54773;53.388;-1.504;2023-07-24T09:59:25;5.50;;;2.58;;
67997;SDS011;54773;53.388;-1.504;2023-07-24T10:02:10;7.07;;;2.60;;
67997;SDS011;54773;53.388;-1.504;2023-07-24T10:04:55;10.30;;;2.60;;
67997;SDS011;54773;53.388;-1.504;2023-07-24T10:07:39;7.50;;;2.00;;
67997;SDS011;54773;53.388;-1.504;2023-07-24T10:10:24;8.30;;;2.28;;
67997;SDS011;54773;53.388;-1.504;2023-07-24T10:13:11;5.13;;;2.20;;
67997;SDS011;54773;53.388;-1.504;2023-07-24T10:15:58;13.07;;;2.40;;
67997;SDS011;54773;53.388;-1.504;2023-07-24T10:18:45;8.07;;;2.00;;
67997;SDS011;54773;53.388;-1.504;2023-07-24T10:21:29;7.40;;;2.35;;
67997;SDS011;54773;53.388;-1.504;2023-07-24T10:24:16;7.00;;;2.08;;
67997;SDS011;54773;53.388;-1.504;2023-07-24T10:27:02;7.88;;;3.08;;
67997;SDS011;54773;53.388;-1.504;2023-07-24T10:29:47;6.53;;;2.65;;
67997;SDS011;54773;53.388;-1.504;2023-07-24T10:32:45;4.93;;;2.38;;
67997;SDS011;54773;53.388;-1.504;2023-07-24T10:35:51;5.38;;;2.05;;
67997;SDS011;54773;53.388;-1.504;2023-07-24T10:38:37;4.13;;;2.05;;
67997;SDS011;54773;53.388;-1.504;2023-07-24T10:41:23;5.22;;;1.92;;
67997;SDS011;54773;53.388;-1.504;2023-07-24T10:44:30;5.78;;;2.20;;
67997;SDS011;54773;53.388;-1.504;2023-07-24T10:47:15;7.47;;;2.30;;
67997;SDS011;54773;53.388;-1.504;2023-07-24T10:50:00;8.48;;;1.88;;
67997;SDS011;54773;53.388;-1.504;2023-07-24T10:52:46;5.90;;;1.63;;
67997;SDS011;54773;53.388;-1.504;2023-07-24T10:55:31;6.18;;;1.90;;
67997;SDS011;54773;53.388;-1.504;2023-07-24T10:58:15;5.78;;;1.77;;
67997;SDS011;54773;53.388;-1.504;2023-07-24T11:01:00;4.53;;;1.40;;
67997;SDS011;54773;53.388;-1.504;2023-07-24T11:03:45;3.28;;;1.58;;
67997;SDS011;54773;53.388;-1.504;2023-07-24T11:06:29;5.03;;;1.50;;
67997;SDS011;54773;53.388;-1.504;2023-07-24T11:09:13;3.55;;;1.48;;
67997;SDS011;54773;53.388;-1.504;2023-07-24T11:11:57;5.65;;;1.70;;
67997;SDS011;54773;53.388;-1.504;2023-07-24T11:14:48;6.57;;;1.90;;
67997;SDS011;54773;53.388;-1.504;2023-07-24T11:17:36;6.10;;;1.83;;
67997;SDS011;54773;53.388;-1.504;2023-07-24T11:20:26;5.00;;;1.70;;
67997;SDS011;54773;53.388;-1.504;2023-07-24T11:23:11;5.88;;;1.80;;
67997;SDS011;54773;53.388;-1.504;2023-07-24T11:25:54;7.57;;;1.67;;
67997;SDS011;54773;53.388;-1.504;2023-07-24T11:28:39;6.20;;;1.65;;
67997;SDS011;54773;53.388;-1.504;2023-07-24T11:31:24;8.70;;;1.80;;
67997;SDS011;54773;53.388;-1.504;2023-07-24T11:34:09;5.05;;;1.70;;
67997;SDS011;54773;53.388;-1.504;2023-07-24T11:36:54;4.47;;;1.40;;
67997;SDS011;54773;53.388;-1.504;2023-07-24T11:39:37;6.03;;;1.63;;
67997;SDS011;54773;53.388;-1.504;2023-07-24T11:42:24;6.18;;;1.50;;
67997;SDS011;54773;53.388;-1.504;2023-07-24T11:45:11;3.90;;;1.45;;
67997;SDS011;54773;53.388;-1.504;2023-07-24T11:47:56;7.57;;;1.75;;
67997;SDS011;54773;53.388;-1.504;2023-07-24T11:50:47;7.55;;;1.88;;
67997;SDS011;54773;53.388;-1.504;2023-07-24T11:53:31;4.82;;;1.60;;
67997;SDS011;54773;53.388;-1.504;2023-07-24T11:56:16;5.90;;;1.52;;
67997;SDS011;54773;53.388;-1.504;2023-07-24T11:59:10;5.50;;;1.35;;
67997;SDS011;54773;53.388;-1.504;2023-07-24T12:01:55;4.77;;;1.50;;
67997;SDS011;54773;53.388;-1.504;2023-07-24T12:04:39;4.55;;;1.50;;
67997;SDS011;54773;53.388;-1.504;2023-07-24T12:07:31;5.70;;;1.70;;
67997;SDS011;54773;53.388;-1.504;2023-07-24T12:10:26;6.38;;;1.60;;
67997;SDS011;54773;53.388;-1.504;2023-07-24T12:13:11;4.90;;;1.58;;
67997;SDS011;54773;53.388;-1.504;2023-07-24T12:15:55;3.78;;;1.50;;
67997;SDS011;54773;53.388;-1.504;2023-07-24T12:18:40;4.80;;;1.40;;
67997;SDS011;54773;53.388;-1.504;2023-07-24T12:21:24;5.40;;;1.48;;
67997;SDS011;54773;53.388;-1.504;2023-07-24T12:24:08;4.50;;;1.50;;
67997;SDS011;54773;53.388;-1.504;2023-07-24T12:26:52;5.88;;;1.67;;
67997;SDS011;54773;53.388;-1.504;2023-07-24T12:29:36;4.22;;;1.52;;
67997;SDS011;54773;53.388;-1.504;2023-07-24T12:32:20;4.88;;;1.67;;
67997;SDS011;54773;53.388;-1.504;2023-07-24T12:35:07;4.10;;;1.48;;
67997;SDS011;54773;53.388;-1.504;2023-07-24T12:37:52;5.60;;;1.55;;
67997;SDS011;54773;53.388;-1.504;2023-07-24T12:40:36;3.97;;;1.35;;
67997;SDS011;54773;53.388;-1.504;2023-07-24T12:46:05;3.20;;;1.20;;
67997;SDS011;54773;53.388;-1.504;2023-07-24T12:48:49;5.07;;;1.40;;
67997;SDS011;54773;53.388;-1.504;2023-07-24T12:54:18;5.23;;;1.33;;
67997;SDS011;54773;53.388;-1.504;2023-07-24T12:57:06;4.32;;;1.48;;
67997;SDS011;54773;53.388;-1.504;2023-07-24T12:59:50;4.25;;;1.52;;
67997;SDS011;54773;53.388;-1.504;2023-07-24T13:02:34;4.88;;;1.90;;
67997;SDS011;54773;53.388;-1.504;2023-07-24T13:08:06;6.00;;;1.65;;
67997;SDS011;54773;53.388;-1.504;2023-07-24T13:10:50;7.28;;;2.00;;
67997;SDS011;54773;53.388;-1.504;2023-07-24T13:13:37;7.15;;;1.80;;
67997;SDS011;54773;53.388;-1.504;2023-07-24T13:16:22;6.65;;;1.80;;
67997;SDS011;54773;53.388;-1.504;2023-07-24T13:19:07;3.53;;;1.40;;
67997;SDS011;54773;53.388;-1.504;2023-07-24T13:21:51;4.70;;;1.63;;
67997;SDS011;54773;53.388;-1.504;2023-07-24T13:24:39;4.70;;;1.40;;
67997;SDS011;54773;53.388;-1.504;2023-07-24T13:27:23;4.63;;;1.50;;
67997;SDS011;54773;53.388;-1.504;2023-07-24T13:30:08;4.18;;;1.70;;
67997;SDS011;54773;53.388;-1.504;2023-07-24T13:32:53;6.70;;;1.30;;
67997;SDS011;54773;53.388;-1.504;2023-07-24T13:35:37;3.55;;;1.30;;
67997;SDS011;54773;53.388;-1.504;2023-07-24T13:38:21;5.05;;;1.70;;
67997;SDS011;54773;53.388;-1.504;2023-07-24T13:41:04;4.32;;;1.25;;
67997;SDS011;54773;53.388;-1.504;2023-07-24T13:43:49;2.83;;;1.20;;
67997;SDS011;54773;53.388;-1.504;2023-07-24T13:49:18;5.22;;;1.30;;
67997;SDS011;54773;53.388;-1.504;2023-07-24T13:54:47;5.33;;;1.37;;
67997;SDS011;54773;53.388;-1.504;2023-07-24T13:57:31;8.35;;;1.67;;
67997;SDS011;54773;53.388;-1.504;2023-07-24T14:00:16;5.95;;;1.52;;
67997;SDS011;54773;53.388;-1.504;2023-07-24T14:03:01;3.58;;;1.30;;
67997;SDS011;54773;53.388;-1.504;2023-07-24T14:05:45;6.72;;;1.33;;
67997;SDS011;54773;53.388;-1.504;2023-07-24T14:08:30;5.25;;;1.40;;
67997;SDS011;54773;53.388;-1.504;2023-07-24T14:11:14;4.15;;;1.45;;
67997;SDS011;54773;53.388;-1.504;2023-07-24T14:14:01;6.57;;;1.70;;
67997;SDS011;54773;53.388;-1.504;2023-07-24T14:16:45;6.07;;;1.50;;
67997;SDS011;54773;53.388;-1.504;2023-07-24T14:19:29;4.72;;;1.10;;
67997;SDS011;54773;53.388;-1.504;2023-07-24T14:22:17;4.05;;;1.30;;
67997;SDS011;54773;53.388;-1.504;2023-07-24T14:25:02;6.03;;;1.55;;
67997;SDS011;54773;53.388;-1.504;2023-07-24T14:27:47;3.92;;;1.27;;
67997;SDS011;54773;53.388;-1.504;2023-07-24T14:30:30;5.97;;;1.65;;
67997;SDS011;54773;53.388;-1.504;2023-07-24T14:33:15;5.03;;;1.50;;
67997;SDS011;54773;53.388;-1.504;2023-07-24T14:36:02;4.68;;;1.40;;
67997;SDS011;54773;53.388;-1.504;2023-07-24T14:38:47;5.63;;;1.77;;
67997;SDS011;54773;53.388;-1.504;2023-07-24T14:41:34;4.00;;;1.30;;
67997;SDS011;54773;53.388;-1.504;2023-07-24T14:44:18;5.50;;;1.42;;
67997;SDS011;54773;53.388;-1.504;2023-07-24T14:47:03;4.50;;;1.80;;
67997;SDS011;54773;53.388;-1.504;2023-07-24T14:49:47;3.38;;;1.45;;
67997;SDS011;54773;53.388;-1.504;2023-07-24T14:52:34;3.73;;;1.60;;
67997;SDS011;54773;53.388;-1.504;2023-07-24T14:55:18;5.63;;;1.65;;
67997;SDS011;54773;53.388;-1.504;2023-07-24T14:58:02;10.18;;;1.90;;
67997;SDS011;54773;53.388;-1.504;2023-07-24T15:00:46;5.03;;;1.35;;
67997;SDS011;54773;53.388;-1.504;2023-07-24T15:03:30;5.65;;;1.55;;
67997;SDS011;54773;53.388;-1.504;2023-07-24T15:06:14;4.60;;;1.40;;
67997;SDS011;54773;53.388;-1.504;2023-07-24T15:08:59;5.97;;;1.70;;
67997;SDS011;54773;53.388;-1.504;2023-07-24T15:11:42;5.60;;;1.52;;
67997;SDS011;54773;53.388;-1.504;2023-07-24T15:14:26;4.57;;;1.40;;
67997;SDS011;54773;53.388;-1.504;2023-07-24T15:17:11;6.07;;;1.35;;
67997;SDS011;54773;53.388;-1.504;2023-07-24T15:19:58;5.82;;;1.65;;
67997;SDS011;54773;53.388;-1.504;2023-07-24T15:22:42;5.45;;;1.58;;
67997;SDS011;54773;53.388;-1.504;2023-07-24T15:25:26;4.93;;;1.60;;
67997;SDS011;54773;53.388;-1.504;2023-07-24T15:28:10;3.92;;;1.20;;
67997;SDS011;54773;53.388;-1.504;2023-07-24T15:30:55;5.82;;;1.40;;
67997;SDS011;54773;53.388;-1.504;2023-07-24T15:33:39;4.45;;;1.42;;
67997;SDS011;54773;53.388;-1.504;2023-07-24T15:36:23;4.47;;;1.23;;
67997;SDS011;54773;53.388;-1.504;2023-07-24T15:39:07;4.20;;;1.60;;
67997;SDS011;54773;53.388;-1.504;2023-07-24T15:41:51;5.35;;;1.35;;
67997;SDS011;54773;53.388;-1.504;2023-07-24T15:44:36;4.28;;;1.30;;
67997;SDS011;54773;53.388;-1.504;2023-07-24T15:47:20;4.05;;;2.05;;
67997;SDS011;54773;53.388;-1.504;2023-07-24T15:50:10;4.47;;;1.30;;
67997;SDS011;54773;53.388;-1.504;2023-07-24T15:55:38;5.57;;;1.30;;
67997;SDS011;54773;53.388;-1.504;2023-07-24T16:01:06;4.75;;;1.30;;
67997;SDS011;54773;53.388;-1.504;2023-07-24T16:03:51;5.13;;;1.30;;
67997;SDS011;54773;53.388;-1.504;2023-07-24T16:09:19;4.00;;;1.60;;
67997;SDS011;54773;53.388;-1.504;2023-07-24T16:12:05;3.30;;;1.27;;
67997;SDS011;54773;53.388;-1.504;2023-07-24T16:17:34;4.50;;;1.60;;
67997;SDS011;54773;53.388;-1.504;2023-07-24T16:23:04;2.95;;;1.17;;
67997;SDS011;54773;53.388;-1.504;2023-07-24T16:25:48;3.40;;;1.38;;
67997;SDS011;54773;53.388;-1.504;2023-07-24T16:28:35;2.90;;;1.27;;
67997;SDS011;54773;53.388;-1.504;2023-07-24T16:31:19;4.70;;;1.35;;
67997;SDS011;54773;53.388;-1.504;2023-07-24T16:34:03;4.85;;;1.88;;
67997;SDS011;54773;53.388;-1.504;2023-07-24T16:36:47;4.90;;;1.23;;
67997;SDS011;54773;53.388;-1.504;2023-07-24T16:39:31;4.13;;;1.30;;
67997;SDS011;54773;53.388;-1.504;2023-07-24T16:42:15;3.38;;;1.17;;
67997;SDS011;54773;53.388;-1.504;2023-07-24T16:44:59;3.50;;;1.42;;
67997;SDS011;54773;53.388;-1.504;2023-07-24T16:47:44;4.88;;;1.40;;
67997;SDS011;54773;53.388;-1.504;2023-07-24T16:50:28;4.65;;;1.33;;